Time;durP1;ratioP1;P1;durP2;ratioP2;P2;SDS_P1;SDS_P2;PMS_P1;PMS_P2;Temp;Humidity;BMP_temperature;BMP_pressure;BME280_temperature;BME280_humidity;BME280_pressure;Samples;Min_cycle;Max_cycle;Signal;HPM_P1;HPM_P2
2022/04/15 00:00:10;;;;;;;64.88;60.70;;;;;;;5.47;100.00;101638.41;4976298;28;20050;-88
2022/04/15 00:02:40;;;;;;;40.40;37.17;;;;;;;5.19;100.00;101640.25;4976061;28;20113;-88
2022/04/15 00:07:50;;;;;;;53.30;49.80;;;;;;;5.19;100.00;101636.81;4975748;28;20054;-88
2022/04/15 00:10:18;;;;;;;82.13;77.32;;;;;;;5.43;100.00;101628.34;4976192;28;20528;-88
2022/04/15 00:12:54;;;;;;;65.07;60.95;;;;;;;5.53;100.00;101626.44;4976228;28;20065;-88
2022/04/15 00:15:21;;;;;;;71.25;66.85;;;;;;;4.78;100.00;101631.91;4975994;28;20050;-88
2022/04/15 00:17:50;;;;;;;66.38;62.15;;;;;;;4.80;100.00;101632.56;4976654;28;20133;-88
2022/04/15 00:20:18;;;;;;;72.32;67.60;;;;;;;4.82;100.00;101637.72;4975397;28;20042;-90
2022/04/15 00:22:48;;;;;;;43.45;40.47;;;;;;;4.79;100.00;101640.63;4976097;28;20066;-90
2022/04/15 00:25:15;;;;;;;39.50;36.60;;;;;;;4.82;100.00;101633.25;4975925;28;20054;-89
2022/04/15 00:27:43;;;;;;;46.05;42.42;;;;;;;4.90;100.00;101624.66;4975651;28;20054;-87
2022/04/15 00:30:14;;;;;;;47.80;44.38;;;;;;;4.99;100.00;101621.13;4975850;28;20051;-89
2022/04/15 00:32:41;;;;;;;46.88;43.30;;;;;;;5.09;100.00;101615.81;4975607;28;20061;-92
2022/04/15 00:35:13;;;;;;;44.53;40.90;;;;;;;4.62;100.00;101618.53;4976504;28;20101;-91
2022/04/15 00:37:40;;;;;;;48.88;45.55;;;;;;;5.16;100.00;101624.75;4972415;28;20043;-91
2022/04/15 00:40:10;;;;;;;49.47;45.97;;;;;;;5.42;100.00;101619.59;4975378;28;20070;-89
2022/04/15 00:42:37;;;;;;;51.75;48.05;;;;;;;5.49;100.00;101612.75;4975025;28;20551;-89
2022/04/15 00:45:11;;;;;;;53.70;50.40;;;;;;;5.15;100.00;101611.75;4975856;28;20534;-90
2022/04/15 00:47:51;;;;;;;54.53;50.58;;;;;;;5.43;100.00;101615.97;4975694;28;20058;-89
2022/04/15 00:50:18;;;;;;;49.50;46.05;;;;;;;4.95;100.00;101608.41;4974525;28;20055;-88
2022/04/15 00:52:47;;;;;;;45.90;42.50;;;;;;;4.56;100.00;101609.41;4975421;28;20047;-89
2022/04/15 00:55:16;;;;;;;48.05;44.40;;;;;;;4.72;100.00;101610.56;4975297;28;20054;-89
2022/04/15 00:57:44;;;;;;;53.75;49.92;;;;;;;5.26;100.00;101606.25;4975459;28;20047;-89
2022/04/15 01:00:13;;;;;;;47.85;44.30;;;;;;;5.15;100.00;101615.22;4975562;28;20078;-89
2022/04/15 01:02:40;;;;;;;50.17;46.50;;;;;;;4.73;100.00;101599.91;4975617;28;20062;-89
2022/04/15 01:05:10;;;;;;;46.30;42.90;;;;;;;4.82;100.00;101611.38;4975136;28;20054;-88
2022/04/15 01:07:38;;;;;;;45.03;41.65;;;;;;;4.54;100.00;101602.66;4975311;28;20054;-90
2022/04/15 01:10:07;;;;;;;43.33;40.03;;;;;;;4.74;100.00;101612.09;4974916;28;20054;-90
2022/04/15 01:12:37;;;;;;;44.10;40.67;;;;;;;5.00;100.00;101604.34;4974618;28;20132;-89
2022/04/15 01:15:06;;;;;;;39.65;36.85;;;;;;;4.76;100.00;101599.63;4975079;28;20051;-88
2022/04/15 01:17:34;;;;;;;44.25;41.20;;;;;;;4.96;100.00;101596.88;4975832;28;20073;-89
2022/04/15 01:20:02;;;;;;;46.05;42.75;;;;;;;4.87;100.00;101590.72;4974878;28;20497;-89
2022/04/15 01:22:36;;;;;;;45.65;42.25;;;;;;;4.73;100.00;101593.84;4974996;28;20050;-89
2022/04/15 01:25:06;;;;;;;43.35;39.95;;;;;;;5.15;100.00;101595.97;4974673;28;20059;-90
2022/04/15 01:27:35;;;;;;;41.65;38.42;;;;;;;4.93;100.00;101600.66;4974811;28;20130;-89
2022/04/15 01:30:01;;;;;;;41.53;38.10;;;;;;;4.90;100.00;101592.22;4974947;28;20051;-89
2022/04/15 01:32:28;;;;;;;44.20;41.05;;;;;;;4.69;100.00;101593.31;4975412;28;20472;-89
2022/04/15 01:34:55;;;;;;;38.65;35.58;;;;;;;4.59;100.00;101592.50;4974516;28;20054;-91
2022/04/15 01:37:24;;;;;;;44.63;41.38;;;;;;;5.03;100.00;101583.00;4974343;28;20046;-89
2022/04/15 01:39:51;;;;;;;50.88;47.15;;;;;;;5.20;100.00;101581.34;4974236;28;20043;-89
2022/04/15 01:42:20;;;;;;;50.72;46.85;;;;;;;5.09;100.00;101578.13;4974718;28;20047;-89
2022/04/15 01:44:48;;;;;;;52.63;48.72;;;;;;;4.91;100.00;101578.91;4974746;28;20063;-89
2022/04/15 01:47:18;;;;;;;46.75;43.35;;;;;;;4.64;100.00;101577.13;4975015;28;20057;-88
2022/04/15 01:49:45;;;;;;;46.33;42.88;;;;;;;4.45;100.00;101579.81;4974385;28;20055;-89
2022/04/15 01:52:12;;;;;;;49.83;46.17;;;;;;;4.50;100.00;101580.22;4974423;28;20051;-89
2022/04/15 01:54:38;;;;;;;49.00;45.40;;;;;;;4.40;100.00;101588.16;4974632;28;20077;-89
2022/04/15 01:57:05;;;;;;;44.10;40.55;;;;;;;4.74;100.00;101575.25;4974088;28;20050;-90
2022/04/15 01:59:34;;;;;;;49.55;45.35;;;;;;;4.72;100.00;101577.22;4974311;28;20046;-89
2022/04/15 02:02:06;;;;;;;49.92;45.95;;;;;;;4.33;100.00;101577.38;5094049;23;20050;-90
2022/04/15 02:04:33;;;;;;;;;;;;;;;4.53;100.00;101579.94;4989779;28;20042;-91
2022/04/15 02:07:00;;;;;;;50.50;46.60;;;;;;;4.42;100.00;101574.84;4992852;28;19922;-89
2022/04/15 02:09:27;;;;;;;50.83;47.10;;;;;;;4.59;100.00;101574.91;4993473;28;20043;-89
2022/04/15 02:11:56;;;;;;;45.17;41.58;;;;;;;4.40;100.00;101568.91;4993241;28;20042;-89
2022/04/15 02:14:23;;;;;;;45.17;41.67;;;;;;;4.16;100.00;101572.03;4993041;28;20046;-89
2022/04/15 02:16:53;;;;;;;50.83;46.63;;;;;;;4.47;100.00;101569.97;4992082;28;20050;-89
2022/04/15 02:19:20;;;;;;;53.00;48.67;;;;;;;4.13;100.00;101566.09;4993999;28;20108;-88
2022/04/15 02:21:47;;;;;;;55.95;51.88;;;;;;;4.25;100.00;101561.50;4993091;28;20056;-89
2022/04/15 02:24:14;;;;;;;50.58;46.40;;;;;;;4.28;100.00;101563.00;4992396;28;20499;-88
2022/04/15 02:26:41;;;;;;;48.83;44.95;;;;;;;4.27;100.00;101556.09;4992384;28;20168;-89
2022/04/15 02:29:09;;;;;;;51.58;47.45;;;;;;;3.94;100.00;101552.19;4990848;28;20057;-89
2022/04/15 02:31:35;;;;;;;48.28;44.20;;;;;;;4.16;100.00;101559.72;4992268;28;20066;-89
2022/04/15 02:34:05;;;;;;;49.55;45.60;;;;;;;4.14;100.00;101559.03;4993010;28;20046;-91
2022/04/15 02:36:32;;;;;;;53.95;49.05;;;;;;;4.05;100.00;101559.88;4992840;28;20120;-89
2022/04/15 02:38:59;;;;;;;43.83;39.88;;;;;;;3.92;100.00;101567.25;4993711;28;20053;-90
2022/04/15 02:41:26;;;;;;;44.33;40.53;;;;;;;3.95;100.00;101569.59;4992120;28;20050;-89
2022/04/15 02:43:54;;;;;;;41.17;37.75;;;;;;;4.06;100.00;101564.19;4992483;28;20058;-90
2022/04/15 02:46:24;;;;;;;40.78;37.13;;;;;;;4.28;100.00;101563.00;4992277;28;20060;-89
2022/04/15 02:48:51;;;;;;;46.50;42.42;;;;;;;4.14;100.00;101556.41;4992261;28;20064;-90
2022/04/15 02:51:20;;;;;;;46.00;41.47;;;;;;;4.41;100.00;101560.88;4992258;28;20058;-90
2022/04/15 02:53:47;;;;;;;42.80;38.58;;;;;;;4.21;100.00;101559.31;4992937;28;20057;-90
2022/04/15 02:56:14;;;;;;;38.67;35.42;;;;;;;3.98;100.00;101556.19;4993067;28;20611;-89
2022/04/15 02:58:40;;;;;;;39.17;36.03;;;;;;;4.28;100.00;101555.94;4992782;28;20404;-89
2022/04/15 03:01:07;;;;;;;40.58;37.33;;;;;;;3.94;100.00;101560.91;4992635;28;20534;-89
2022/04/15 03:03:34;;;;;;;43.28;39.85;;;;;;;4.01;100.00;101563.78;4992567;28;20058;-90
2022/04/15 03:06:02;;;;;;;43.90;40.40;;;;;;;4.07;100.00;101558.78;4992406;28;20057;-89
2022/04/15 03:08:31;;;;;;;37.42;34.63;;;;;;;3.84;100.00;101560.06;4992442;28;20240;-89
2022/04/15 03:11:00;;;;;;;40.10;36.63;;;;;;;3.87;100.00;101555.38;4992562;28;20129;-90
2022/04/15 03:13:27;;;;;;;46.38;42.90;;;;;;;3.69;100.00;101557.03;4993404;28;20046;-89
2022/04/15 03:15:54;;;;;;;46.83;43.40;;;;;;;3.85;100.00;101554.69;4995787;28;20550;-89
2022/04/15 03:18:21;;;;;;;50.05;46.03;;;;;;;3.92;100.00;101554.94;4997029;28;20050;-89
2022/04/15 03:20:48;;;;;;;55.58;50.47;;;;;;;3.57;100.00;101553.75;4996581;28;20043;-89
2022/04/15 03:23:15;;;;;;;60.78;54.83;;;;;;;3.50;100.00;101551.81;4996601;28;20462;-89
2022/04/15 03:25:43;;;;;;;69.10;61.95;;;;;;;3.55;100.00;101554.88;4992553;28;20133;-89
2022/04/15 03:28:10;;;;;;;95.15;87.75;;;;;;;3.52;100.00;101561.22;4995987;28;20058;-90
2022/04/15 03:30:37;;;;;;;82.47;75.07;;;;;;;3.26;100.00;101558.31;4996267;28;20069;-89
2022/04/15 03:33:04;;;;;;;73.00;66.15;;;;;;;3.59;100.00;101569.38;4997042;28;20066;-90
2022/04/15 03:35:33;;;;;;;87.88;80.07;;;;;;;3.69;100.00;101572.81;4996089;28;20050;-89
2022/04/15 03:38:00;;;;;;;88.63;80.72;;;;;;;3.58;100.00;101559.84;4996425;28;20117;-90
2022/04/15 03:40:26;;;;;;;82.07;74.47;;;;;;;3.30;100.00;101564.09;4995965;28;20072;-89
2022/04/15 03:42:57;;;;;;;71.82;65.28;;;;;;;3.33;100.00;101572.56;4996195;28;20542;-90
2022/04/15 03:45:25;;;;;;;79.63;71.90;;;;;;;3.27;100.00;101557.38;4995549;28;20056;-89
2022/04/15 03:47:54;;;;;;;69.50;62.92;;;;;;;3.26;100.00;101567.97;4997263;28;20482;-91
2022/04/15 03:50:24;;;;;;;70.35;63.63;;;;;;;3.61;100.00;101567.44;4995471;28;20054;-90
2022/04/15 03:52:53;;;;;;;74.25;67.65;;;;;;;3.49;100.00;101558.88;4995949;28;20061;-89
2022/04/15 03:55:25;;;;;;;66.05;59.55;;;;;;;3.70;100.00;101571.03;4996091;28;20053;-90
2022/04/15 03:57:52;;;;;;;68.10;61.80;;;;;;;3.66;100.00;101557.31;4995365;28;20053;-89
2022/04/15 04:00:22;;;;;;;72.75;66.05;;;;;;;3.76;100.00;101568.66;4995380;28;20129;-90
2022/04/15 04:02:53;;;;;;;63.35;56.97;;;;;;;3.82;100.00;101564.66;4976964;28;20062;-90
2022/04/15 04:05:23;;;;;;;65.75;59.17;;;;;;;3.76;100.00;101566.03;4976195;28;20073;-90
2022/04/15 04:07:51;;;;;;;61.90;55.75;;;;;;;3.64;100.00;101559.28;4971811;28;20050;-90
2022/04/15 04:10:18;;;;;;;62.70;56.55;;;;;;;3.75;100.00;101553.88;4976293;28;20054;-90
2022/04/15 04:12:53;;;;;;;66.28;60.45;;;;;;;5.25;100.00;101557.19;4973562;28;20133;-90
2022/04/15 04:15:25;;;;;;;58.10;53.30;;;;;;;3.96;100.00;101556.31;4972372;28;20058;-90
2022/04/15 04:17:52;;;;;;;36.77;33.90;;;;;;;4.07;100.00;101561.41;4976877;28;20154;-89
2022/04/15 04:20:22;;;;;;;36.95;33.85;;;;;;;4.07;100.00;101573.72;4975598;28;20053;-89
2022/04/15 04:22:50;;;;;;;37.95;34.78;;;;;;;4.14;100.00;101564.28;4975899;28;20055;-89
2022/04/15 04:25:16;;;;;;;42.17;38.08;;;;;;;4.24;100.00;101565.09;4974139;28;20043;-89
2022/04/15 04:27:49;;;;;;;40.55;37.03;;;;;;;4.36;100.00;101568.38;4975656;28;20496;-90
2022/04/15 04:30:16;;;;;;;38.45;35.10;;;;;;;4.41;100.00;101568.75;4975990;28;20046;-89
2022/04/15 04:32:49;;;;;;;37.17;33.78;;;;;;;4.58;100.00;101562.72;4976361;28;20050;-89
2022/04/15 04:35:16;;;;;;;;;;;;;;;4.62;100.00;101558.00;4976387;28;20054;-89
2022/04/15 04:37:43;;;;;;;37.63;34.42;;;;;;;4.57;100.00;101568.97;4975470;28;19922;-89
2022/04/15 04:40:16;;;;;;;38.00;34.28;;;;;;;4.67;100.00;101568.94;4975666;28;20488;-89
2022/04/15 04:42:48;;;;;;;40.53;36.35;;;;;;;4.90;100.00;101564.09;4975314;28;20043;-89
2022/04/15 04:45:15;;;;;;;36.03;32.92;;;;;;;4.82;100.00;101567.47;4975578;28;20106;-89
2022/04/15 04:47:44;;;;;;;35.17;32.03;;;;;;;5.03;100.00;101569.00;4976165;28;20047;-91
2022/04/15 04:50:13;;;;;;;37.35;34.05;;;;;;;5.21;100.00;101569.03;4975621;28;20080;-89
2022/04/15 04:52:41;;;;;;;37.80;34.42;;;;;;;5.43;100.00;101573.81;4975453;28;20050;-89
2022/04/15 04:55:09;;;;;;;33.33;30.73;;;;;;;5.36;100.00;101577.22;4975553;28;20058;-89
2022/04/15 04:57:37;;;;;;;32.75;30.20;;;;;;;5.58;100.00;101584.66;4974722;28;20057;-89
2022/04/15 05:00:05;;;;;;;35.05;32.22;;;;;;;5.93;100.00;101582.97;4975375;28;20405;-89
2022/04/15 05:02:31;;;;;;;36.65;33.83;;;;;;;6.00;100.00;101584.03;4991682;28;20159;-89
2022/04/15 05:04:58;;;;;;;35.42;32.78;;;;;;;6.47;100.00;101588.06;4994577;28;20046;-89
2022/04/15 05:07:26;;;;;;;34.28;31.02;;;;;;;6.71;100.00;101593.47;4994867;28;20459;-91
2022/04/15 05:09:53;;;;;;;31.40;29.38;;;;;;;6.90;100.00;101587.13;4994902;28;20046;-88
2022/04/15 05:12:20;;;;;;;32.92;30.60;;;;;;;7.11;100.00;101592.78;4993799;28;20065;-89
2022/04/15 05:14:47;;;;;;;33.67;30.85;;;;;;;7.16;100.00;101583.53;4995303;28;20510;-89
2022/04/15 05:17:14;;;;;;;33.38;31.05;;;;;;;7.38;100.00;101596.09;4995178;28;20522;-90
2022/04/15 05:19:41;;;;;;;32.60;30.13;;;;;;;7.72;100.00;101597.81;4994850;28;20050;-89
2022/04/15 05:22:09;;;;;;;47.70;44.63;;;;;;;7.80;100.00;101592.50;4993723;28;20046;-90
2022/04/15 05:24:40;;;;;;;52.95;49.35;;;;;;;7.90;100.00;101590.53;4994032;28;20054;-90
2022/04/15 05:27:07;;;;;;;45.38;42.75;;;;;;;8.17;100.00;101597.25;4994027;28;20046;-90
2022/04/15 05:29:34;;;;;;;44.63;41.72;;;;;;;8.21;100.00;101590.63;4993778;28;20050;-90
2022/04/15 05:32:02;;;;;;;40.85;37.85;;;;;;;8.51;100.00;101596.22;4994867;28;20496;-89
2022/04/15 05:34:29;;;;;;;32.65;30.25;;;;;;;8.80;100.00;101597.41;4994108;28;20042;-89
2022/04/15 05:36:56;;;;;;;33.63;31.13;;;;;;;9.11;100.00;101594.78;4993251;28;20042;-90
2022/04/15 05:39:23;;;;;;;33.92;31.23;;;;;;;8.95;100.00;101591.19;4993740;28;20073;-89
2022/04/15 05:41:53;;;;;;;33.20;30.95;;;;;;;9.02;100.00;101580.75;4990628;28;20050;-89
2022/04/15 05:44:24;;;;;;;34.60;32.10;;;;;;;9.33;100.00;101578.06;4993434;28;20547;-90
2022/04/15 05:46:53;;;;;;;36.10;33.30;;;;;;;9.42;100.00;101583.31;4993744;28;20477;-90
2022/04/15 05:49:20;;;;;;;39.63;36.92;;;;;;;9.89;100.00;101582.25;4985638;28;20070;-90
2022/04/15 05:51:46;;;;;;;35.97;33.20;;;;;;;10.13;100.00;101579.34;4993011;28;20073;-90
2022/04/15 05:54:13;;;;;;;36.17;33.60;;;;;;;10.21;100.00;101576.59;4994151;28;20053;-89
2022/04/15 05:56:40;;;;;;;34.55;32.15;;;;;;;10.16;100.00;101580.81;4993048;28;20046;-89
2022/04/15 05:59:10;;;;;;;35.70;32.42;;;;;;;10.26;100.00;101578.72;4994110;28;20057;-89
2022/04/15 06:01:36;;;;;;;34.53;31.75;;;;;;;10.39;100.00;101578.94;4993846;28;20062;-90
2022/04/15 06:04:03;;;;;;;48.72;44.97;;;;;;;10.67;100.00;101580.91;4993449;28;20050;-90
2022/04/15 06:06:30;;;;;;;34.08;30.98;;;;;;;10.84;100.00;101582.38;4992823;28;20055;-90
2022/04/15 06:08:57;;;;;;;35.55;32.85;;;;;;;10.90;100.00;101572.84;4993565;28;20483;-89
2022/04/15 06:11:28;;;;;;;34.55;31.90;;;;;;;11.23;100.00;101579.31;4993828;28;20061;-90
2022/04/15 06:13:55;;;;;;;36.65;33.63;;;;;;;11.20;100.00;101576.22;4993430;28;20653;-89
2022/04/15 06:16:27;;;;;;;33.33;30.63;;;;;;;11.50;100.00;101578.75;4992952;28;20525;-90
2022/04/15 06:18:54;;;;;;;33.92;31.10;;;;;;;11.72;100.00;101571.56;4993523;28;20492;-90
2022/04/15 06:21:21;;;;;;;34.00;31.67;;;;;;;11.83;100.00;101566.56;4993022;28;20519;-90
2022/04/15 06:23:47;;;;;;;41.30;37.92;;;;;;;12.02;100.00;101572.25;4993410;28;20057;-88
2022/04/15 06:26:14;;;;;;;44.97;41.30;;;;;;;12.54;100.00;101570.91;4994017;28;20050;-90
2022/04/15 06:28:41;;;;;;;42.72;38.95;;;;;;;12.20;100.00;101575.22;4993105;28;20113;-90
2022/04/15 06:31:10;;;;;;;40.95;37.97;;;;;;;12.50;100.00;101569.66;4992849;28;20051;-90
2022/04/15 06:33:41;;;;;;;37.03;34.00;;;;;;;12.78;100.00;101565.06;4992791;28;20046;-90
2022/04/15 06:36:08;;;;;;;37.28;34.55;;;;;;;13.21;100.00;101566.59;4993207;28;20101;-90
2022/04/15 06:38:37;;;;;;;39.75;36.67;;;;;;;13.35;100.00;101554.97;4992908;28;20455;-90
2022/04/15 06:41:03;;;;;;;39.17;36.55;;;;;;;13.17;100.00;101562.69;4992982;28;20054;-90
2022/04/15 06:43:30;;;;;;;40.22;37.42;;;;;;;13.40;100.00;101562.34;4992823;28;20054;-90
2022/04/15 06:45:57;;;;;;;39.33;36.83;;;;;;;13.56;100.00;101567.28;4992086;28;20065;-90
2022/04/15 06:48:25;;;;;;;41.60;39.17;;;;;;;13.96;100.00;101561.94;4993173;28;20471;-90
2022/04/15 06:50:55;;;;;;;43.33;40.55;;;;;;;13.96;100.00;101564.59;4992193;28;20053;-90
2022/04/15 06:53:25;;;;;;;39.78;37.40;;;;;;;14.27;100.00;101566.59;4992605;28;20100;-90
2022/04/15 06:55:52;;;;;;;36.65;34.45;;;;;;;14.45;100.00;101565.91;4992654;28;20125;-90
2022/04/15 06:58:22;;;;;;;37.05;34.85;;;;;;;14.91;100.00;101564.09;4992631;28;20089;-90
2022/04/15 07:00:51;;;;;;;36.28;34.17;;;;;;;14.93;100.00;101560.19;4990989;28;20046;-90
2022/04/15 07:03:21;;;;;;;35.10;33.13;;;;;;;15.04;100.00;101562.19;4973624;28;20047;-90
2022/04/15 07:05:48;;;;;;;36.35;34.15;;;;;;;15.46;100.00;101556.34;4972787;28;20389;-90
2022/04/15 07:08:16;;;;;;;38.15;35.60;;;;;;;15.37;100.00;101552.28;4972896;28;20043;-90
2022/04/15 07:10:44;;;;;;;37.45;35.38;;;;;;;15.62;100.00;101555.00;4969023;28;20062;-90
2022/04/15 07:13:12;;;;;;;36.38;34.38;;;;;;;15.83;100.00;101549.28;4973334;28;20492;-91
2022/04/15 07:15:39;;;;;;;35.85;33.53;;;;;;;15.90;100.00;101547.34;4973469;28;20055;-90
2022/04/15 07:18:06;;;;;;;36.60;34.40;;;;;;;16.04;99.11;101545.34;4973792;28;20054;-90
2022/04/15 07:20:33;;;;;;;36.63;34.55;;;;;;;16.27;99.93;101550.84;4973103;28;20054;-90
2022/04/15 07:23:02;;;;;;;38.30;35.95;;;;;;;16.00;92.89;101552.19;4972894;28;20418;-90
2022/04/15 07:25:30;;;;;;;42.72;40.40;;;;;;;15.48;87.60;101541.69;4972831;28;20055;-90
2022/04/15 07:27:57;;;;;;;40.33;38.03;;;;;;;15.92;88.21;101547.94;4972237;28;20060;-89
2022/04/15 07:30:25;;;;;;;40.47;38.15;;;;;;;16.39;86.02;101547.44;4972715;28;20512;-90
2022/04/15 07:32:55;;;;;;;41.58;39.05;;;;;;;16.30;80.30;101543.41;4973581;28;20058;-90
2022/04/15 07:35:23;;;;;;;44.95;42.45;;;;;;;16.98;81.60;101543.19;4973131;28;20555;-90
2022/04/15 07:37:49;;;;;;;40.88;38.63;;;;;;;17.25;78.36;101546.31;4973042;28;20059;-90
2022/04/15 07:40:16;;;;;;;45.50;42.53;;;;;;;17.33;81.37;101543.28;4972829;28;20081;-90
2022/04/15 07:42:45;;;;;;;44.35;41.30;;;;;;;17.56;80.92;101541.69;4972955;28;20050;-91
2022/04/15 07:45:13;;;;;;;38.75;36.60;;;;;;;17.50;84.28;101535.38;4973116;28;20054;-90
2022/04/15 07:47:40;;;;;;;40.45;38.25;;;;;;;17.65;82.04;101532.22;4973384;28;20484;-90
2022/04/15 07:50:08;;;;;;;44.65;42.17;;;;;;;16.74;76.83;101541.44;4972880;28;20047;-90
2022/04/15 07:52:35;;;;;;;41.28;39.00;;;;;;;17.07;75.83;101535.66;4972925;28;20058;-89
2022/04/15 07:55:03;;;;;;;43.33;41.13;;;;;;;17.40;73.31;101529.75;4972799;28;20054;-90
2022/04/15 07:57:34;;;;;;;42.95;40.60;;;;;;;16.99;77.48;101538.66;4972801;28;20051;-91
2022/04/15 08:00:02;;;;;;;41.25;38.80;;;;;;;16.20;77.83;101534.03;4966135;28;20081;-90
2022/04/15 08:02:31;;;;;;;41.03;38.63;;;;;;;16.11;80.28;101532.69;4990891;28;20428;-91
2022/04/15 08:04:58;;;;;;;39.17;36.78;;;;;;;15.34;81.00;101518.78;4995887;28;20059;-90
2022/04/15 08:07:25;;;;;;;40.50;38.28;;;;;;;14.91;89.51;101523.97;4995571;28;20495;-90
2022/04/15 08:09:52;;;;;;;38.28;36.35;;;;;;;17.23;90.08;101521.56;4995395;28;20549;-90
2022/04/15 08:12:19;;;;;;;39.53;37.42;;;;;;;18.27;77.85;101519.09;4996089;28;20054;-89
2022/04/15 08:14:46;;;;;;;42.75;40.55;;;;;;;18.17;70.96;101518.09;4995953;28;20046;-89
2022/04/15 08:17:16;;;;;;;42.67;40.47;;;;;;;18.14;65.10;101510.50;4995282;28;20490;-90
2022/04/15 08:19:43;;;;;;;45.60;43.30;;;;;;;18.56;70.43;101505.69;4995435;28;20054;-90
2022/04/15 08:22:10;;;;;;;45.00;42.33;;;;;;;19.06;69.79;101506.88;4995200;28;20046;-90
2022/04/15 08:24:42;;;;;;;48.88;46.33;;;;;;;19.05;61.79;101500.69;4995509;28;20415;-90
2022/04/15 08:27:11;;;;;;;51.88;49.30;;;;;;;19.41;61.53;101499.38;4993660;28;20116;-90
2022/04/15 08:29:39;;;;;;;45.65;42.88;;;;;;;18.86;64.67;101499.28;4995594;28;20061;-90
2022/04/15 08:32:08;;;;;;;44.03;41.72;;;;;;;19.06;64.16;101490.72;4995191;28;20051;-90
2022/04/15 08:34:37;;;;;;;46.13;43.72;;;;;;;19.03;60.34;101491.22;4995418;28;20427;-90
2022/04/15 08:37:05;;;;;;;46.47;44.17;;;;;;;17.99;64.05;101487.59;4995414;28;20073;-90
2022/04/15 08:39:31;;;;;;;40.30;38.20;;;;;;;18.40;67.46;101482.25;4995805;28;20060;-91
2022/04/15 08:41:59;;;;;;;43.30;40.92;;;;;;;18.87;60.75;101482.06;4993455;28;20049;-88
2022/04/15 08:44:27;;;;;;;44.30;41.80;;;;;;;18.13;72.16;101465.84;4995001;28;20537;-90
2022/04/15 08:46:54;;;;;;;45.60;43.10;;;;;;;20.00;64.69;101473.81;4994820;28;20054;-90
2022/04/15 08:49:22;;;;;;;42.70;40.30;;;;;;;20.46;61.33;101469.78;4994960;28;20061;-90
2022/04/15 08:51:55;;;;;;;50.15;47.35;;;;;;;19.19;58.07;101458.09;4995060;28;20050;-89
2022/04/15 08:54:22;;;;;;;50.05;47.40;;;;;;;20.82;55.70;101462.06;4994820;28;20435;-90
2022/04/15 08:56:49;;;;;;;47.42;45.03;;;;;;;20.80;56.58;101465.00;4994623;28;20050;-90
2022/04/15 08:59:16;;;;;;;44.65;42.30;;;;;;;18.07;59.01;101446.94;4994754;28;20054;-89
2022/04/15 09:01:43;;;;;;;49.40;46.92;;;;;;;19.02;67.55;101454.59;4987138;28;20066;-91
2022/04/15 09:04:10;;;;;;;49.72;46.70;;;;;;;20.77;56.43;101453.91;4975225;28;20094;-90
2022/04/15 09:06:38;;;;;;;51.78;49.17;;;;;;;20.42;54.51;101443.56;4975010;28;20058;-90
2022/04/15 09:09:08;;;;;;;44.45;42.05;;;;;;;19.87;63.74;101445.34;4974950;28;20051;-90
2022/04/15 09:11:36;;;;;;;50.45;47.95;;;;;;;19.55;68.61;101432.53;4973896;28;20134;-91
2022/04/15 09:14:07;;;;;;;44.17;41.92;;;;;;;20.18;60.17;101432.22;4972991;28;20054;-91
2022/04/15 09:16:38;;;;;;;50.53;47.83;;;;;;;21.12;56.43;101431.81;4974813;28;20221;-91
2022/04/15 09:19:07;;;;;;;49.22;46.63;;;;;;;20.85;59.11;101426.47;4974829;28;20046;-90
2022/04/15 09:21:37;;;;;;;43.13;40.97;;;;;;;21.89;60.11;101419.56;4974973;28;20093;-90
2022/04/15 09:24:07;;;;;;;41.35;39.25;;;;;;;20.12;54.38;101429.50;4973708;28;20050;-91
2022/04/15 09:26:37;;;;;;;41.20;38.97;;;;;;;19.08;63.19;101424.81;4973931;28;20120;-89
2022/04/15 09:29:04;;;;;;;38.70;36.50;;;;;;;21.40;55.12;101419.88;4974790;28;20158;-90
2022/04/15 09:31:31;;;;;;;38.58;36.58;;;;;;;20.30;53.69;101422.13;4974669;28;20054;-91
2022/04/15 09:33:59;;;;;;;41.45;39.25;;;;;;;20.73;55.58;101415.84;4975267;28;20046;-90
2022/04/15 09:36:32;;;;;;;39.30;36.90;;;;;;;22.08;50.69;101414.47;4970332;28;20055;-90
2022/04/15 09:39:01;;;;;;;38.22;36.13;;;;;;;21.82;47.10;101410.06;4975032;28;20069;-90
2022/04/15 09:41:31;;;;;;;43.35;41.25;;;;;;;20.15;57.87;101409.28;4974552;28;20050;-90
2022/04/15 09:44:02;;;;;;;39.95;37.92;;;;;;;21.43;52.20;101399.63;4974069;28;20636;-89
2022/04/15 09:46:32;;;;;;;38.20;36.10;;;;;;;21.62;46.86;101399.97;4974400;28;20046;-91
2022/04/15 09:49:09;;;;;;;41.90;39.60;;;;;;;22.65;47.96;101399.19;4974663;28;20097;-89
2022/04/15 09:51:40;;;;;;;39.10;36.90;;;;;;;22.18;52.37;101387.50;4973701;28;20050;-90
2022/04/15 09:54:10;;;;;;;40.60;38.50;;;;;;;21.29;50.65;101391.13;4971937;28;20047;-89
2022/04/15 09:56:43;;;;;;;40.58;38.38;;;;;;;21.31;53.20;101390.88;4973696;28;20121;-89
2022/04/15 09:59:11;;;;;;;41.15;38.85;;;;;;;20.91;52.33;101384.09;4972283;28;20078;-90
2022/04/15 10:01:44;;;;;;;36.85;34.95;;;;;;;21.25;67.13;101381.91;4981238;28;20051;-88
2022/04/15 10:04:13;;;;;;;;;;;;;;;20.24;54.00;101377.28;4994080;28;20116;-90
2022/04/15 10:06:43;;;;;;;40.47;38.08;;;;;;;22.23;53.74;101375.84;4993024;28;19929;-90
2022/04/15 10:09:17;;;;;;;46.15;43.65;;;;;;;19.73;57.76;101371.31;4989515;28;20046;-89
2022/04/15 10:11:49;;;;;;;39.75;37.50;;;;;;;21.95;53.55;101364.41;4992377;28;20552;-90
2022/04/15 10:14:19;;;;;;;42.63;40.42;;;;;;;17.89;55.54;101369.16;4992516;28;20054;-88
2022/04/15 10:16:48;;;;;;;39.63;37.35;;;;;;;18.72;60.31;101366.88;4993103;28;20108;-89
2022/04/15 10:19:18;;;;;;;40.10;37.90;;;;;;;20.04;51.55;101367.13;4993176;28;20042;-89
2022/04/15 10:21:46;;;;;;;42.08;39.95;;;;;;;17.09;60.61;101361.78;4993711;28;20142;-89
2022/04/15 10:24:14;;;;;;;42.58;40.35;;;;;;;19.07;53.28;101355.06;4992426;28;20046;-90
2022/04/15 10:26:43;;;;;;;37.88;35.88;;;;;;;16.98;60.89;101360.75;4993409;28;20050;-89
2022/04/15 10:29:14;;;;;;;41.50;39.30;;;;;;;18.79;53.08;101353.28;4991327;28;20054;-88
2022/04/15 10:31:45;;;;;;;43.03;40.63;;;;;;;19.52;51.45;101357.59;4992675;28;20078;-90
2022/04/15 10:34:16;;;;;;;43.40;40.80;;;;;;;20.56;54.50;101350.38;4993115;28;20471;-90
2022/04/15 10:36:50;;;;;;;41.15;38.95;;;;;;;20.96;48.09;101346.34;4992852;28;20151;-90
2022/04/15 10:39:20;;;;;;;44.10;41.70;;;;;;;19.20;51.96;101354.72;4993414;28;20058;-90
2022/04/15 10:42:05;;;;;;;42.75;40.17;;;;;;;19.48;50.96;101351.03;4993068;28;20084;-89
2022/04/15 10:44:37;;;;;;;43.38;41.15;;;;;;;21.20;43.38;101339.47;4992528;28;20051;-90
2022/04/15 10:47:29;;;;;;;39.85;37.65;;;;;;;20.45;43.60;101338.63;4992638;28;20066;-90
2022/04/15 10:50:01;;;;;;;46.25;43.60;;;;;;;21.49;46.05;101339.91;4986003;28;20050;-90
2022/04/15 10:52:30;;;;;;;51.47;48.58;;;;;;;21.45;47.31;101336.13;4992888;28;20112;-89
2022/04/15 10:54:59;;;;;;;53.80;50.70;;;;;;;20.64;46.98;101332.91;4992211;28;20053;-90
2022/04/15 10:57:35;;;;;;;47.90;45.30;;;;;;;21.93;49.20;101322.47;4984864;28;20054;-90
2022/04/15 11:02:57;;;;;;;51.05;48.22;;;;;;;20.52;44.86;101315.00;4986503;28;20622;-90
2022/04/15 11:05:55;;;;;;;50.85;47.90;;;;;;;22.99;42.36;101301.16;4992912;28;20061;-89
2022/04/15 11:08:24;;;;;;;37.38;35.17;;;;;;;21.52;44.89;101306.16;4991306;28;20496;-90
2022/04/15 11:11:05;;;;;;;39.35;36.95;;;;;;;23.87;39.68;101305.13;4992717;28;20056;-90
2022/04/15 11:14:00;;;;;;;40.35;38.05;;;;;;;24.61;41.78;101295.09;4989705;28;20507;-91
2022/04/15 11:16:41;;;;;;;39.15;36.85;;;;;;;21.80;38.91;101298.66;4983388;28;20068;-90
2022/04/15 11:19:11;;;;;;;42.28;39.78;;;;;;;23.35;41.29;101299.13;4993025;28;20043;-90
2022/04/15 11:21:39;;;;;;;37.10;34.75;;;;;;;23.26;38.54;101295.38;4992711;28;20074;-90